This is the latest recevied weather packets stored in our database for station/object KN6DHD. If no packets are shown the sender has not sent any weather packets the latest 10 day(s).
| Time | Temp. | Humidity | Pressure | Rain* | Wind** | Luminosity | Snow |
|---|---|---|---|---|---|---|---|
| 1777682347 | 27.22° C | 50% | 1010.9 hPa | 0 mm | - | 130 W/m² | - |
| 1777682044 | 27.22° C | 51% | 1010.8 hPa | 0 mm | - | 134 W/m² | - |
| 1777681740 | 26.67° C | 52% | 1010.9 hPa | 0 mm | - | 140 W/m² | - |
| 1777681438 | 27.22° C | 50% | 1010.9 hPa | 0 mm | - | 158 W/m² | - |
| 1777681135 | 27.22° C | 52% | 1011 hPa | 0 mm | - | 167 W/m² | - |
| 1777680832 | 27.78° C | 51% | 1010.8 hPa | 0 mm | - | 140 W/m² | - |
| 1777680530 | 27.22° C | 51% | 1011.2 hPa | 0 mm | - | 138 W/m² | - |
| 1777680228 | 27.22° C | 50% | 1011 hPa | 0 mm | - | 165 W/m² | - |
| 1777679924 | 27.78° C | 51% | 1010.9 hPa | 0 mm | - | 181 W/m² | - |
| 1777679619 | 27.78° C | 50% | 1011.1 hPa | 0 mm | - | 217 W/m² | - |
| 1777679315 | 28.89° C | 49% | 1011 hPa | 0 mm | - | 242 W/m² | - |
| 1777679012 | 28.89° C | 48% | 1011.2 hPa | 0 mm | - | 275 W/m² | - |
| 1777678711 | 28.89° C | 47% | 1011.6 hPa | 0 mm | - | 275 W/m² | - |
| 1777678408 | 28.89° C | 47% | 1011.1 hPa | 0 mm | - | 308 W/m² | - |
| 1777678103 | 29.44° C | 47% | 1011.4 hPa | 0 mm | - | 342 W/m² | - |
| 1777677801 | 29.44° C | 46% | 1011.3 hPa | 0 mm | - | 362 W/m² | - |
| 1777677498 | 28.89° C | 47% | 1011.6 hPa | 0 mm | - | 377 W/m² | - |
| 1777677196 | 29.44° C | 47% | 1011.5 hPa | 0 mm | - | 391 W/m² | - |
| 1777676894 | 28.33° C | 50% | 1011.4 hPa | 0 mm | - | 440 W/m² | - |
| 1777676593 | 28.33° C | 49% | 1011.4 hPa | 0 mm | - | 440 W/m² | - |
| 1777676290 | 28.33° C | 51% | 1011.6 hPa | 0 mm | - | 453 W/m² | - |
| 1777675988 | 28.33° C | 50% | 1011.6 hPa | 0 mm | - | 424 W/m² | - |
| 1777675683 | 27.78° C | 52% | 1011.7 hPa | 0 mm | - | 420 W/m² | - |
| 1777675381 | 27.78° C | 52% | 1011.7 hPa | 0 mm | - | 456 W/m² | - |
| 1777675076 | 28.33° C | 50% | 1012 hPa | 0 mm | - | 457 W/m² | - |
* Rain latest hour (hover to see other rain measurements)
** Current wind speed in m/s (hover to see current wind gust speed)